Time;durP1;ratioP1;P1;durP2;ratioP2;P2;SDS_P1;SDS_P2;PMS_P1;PMS_P2;Temp;Humidity;BMP_temperature;BMP_pressure;BME280_temperature;BME280_humidity;BME280_pressure;Samples;Min_cycle;Max_cycle;Signal;HPM_P1;HPM_P2
2023/04/17 00:00:04;;;;;;;20.07;7.13;;;;;;;42.86;33.29;100810.19;6184556;23;20415;-82
2023/04/17 00:02:30;;;;;;;34.57;10.57;;;;;;;42.91;33.53;100815.41;6184262;23;20993;-81
2023/04/17 00:04:56;;;;;;;18.13;5.80;;;;;;;42.86;33.39;100807.47;6184538;23;20439;-81
2023/04/17 00:07:23;;;;;;;25.60;5.30;;;;;;;42.85;33.25;100816.78;6184380;23;20721;-81
2023/04/17 00:09:49;;;;;;;18.17;7.00;;;;;;;42.90;33.03;100815.75;6184389;23;20203;-81
2023/04/17 00:12:15;;;;;;;20.80;4.50;;;;;;;42.90;33.32;100808.34;6185943;23;20459;-81
2023/04/17 00:14:41;;;;;;;12.60;5.60;;;;;;;42.87;33.30;100803.59;6186078;23;20492;-81
2023/04/17 00:17:07;;;;;;;21.70;5.77;;;;;;;42.93;33.25;100801.41;6186340;23;20389;-81
2023/04/17 00:19:33;;;;;;;12.30;5.63;;;;;;;42.86;33.27;100787.56;6186254;23;20376;-83
2023/04/17 00:21:59;;;;;;;29.43;6.50;;;;;;;42.83;33.54;100778.09;6185871;23;20481;-83
2023/04/17 00:24:25;;;;;;;15.63;6.87;;;;;;;42.85;33.45;100778.59;6184286;23;20381;-81
2023/04/17 00:26:51;;;;;;;25.33;7.40;;;;;;;42.86;33.54;100790.28;6184130;23;20423;-82
2023/04/17 00:29:17;;;;;;;21.27;5.87;;;;;;;42.89;33.72;100782.19;6184238;23;20385;-82
2023/04/17 00:31:43;;;;;;;13.27;5.07;;;;;;;42.81;34.04;100782.34;6184249;23;20396;-82
2023/04/17 00:34:09;;;;;;;15.57;7.43;;;;;;;42.78;34.10;100783.78;6184148;23;20163;-82
2023/04/17 00:36:35;;;;;;;12.57;4.40;;;;;;;42.85;34.03;100788.72;6184183;23;20408;-82
2023/04/17 00:39:01;;;;;;;12.03;6.70;;;;;;;42.82;33.45;100779.25;6183976;23;20412;-81
2023/04/17 00:41:27;;;;;;;14.53;5.17;;;;;;;42.89;33.54;100795.84;6183810;23;20463;-82
2023/04/17 00:43:53;;;;;;;12.53;4.80;;;;;;;42.85;33.69;100794.94;6186068;23;20376;-83
2023/04/17 00:46:19;;;;;;;16.00;4.67;;;;;;;42.90;33.57;100800.16;6183796;23;20420;-83
2023/04/17 00:48:45;;;;;;;16.30;4.90;;;;;;;42.94;33.40;100803.00;6184007;23;20442;-82
2023/04/17 00:51:11;;;;;;;15.33;4.83;;;;;;;42.85;33.71;100791.44;6184052;23;20439;-81
2023/04/17 00:53:37;;;;;;;16.43;4.70;;;;;;;42.82;33.61;100781.19;6183539;23;20467;-81
2023/04/17 00:56:05;;;;;;;13.70;4.90;;;;;;;42.76;33.24;100780.63;6184186;23;20899;-81
2023/04/17 00:58:32;;;;;;;17.00;5.67;;;;;;;42.70;33.54;100778.47;6183872;23;20388;-81
2023/04/17 01:00:59;;;;;;;25.17;6.10;;;;;;;42.76;33.19;100772.44;6183725;23;20384;-81
2023/04/17 01:03:25;;;;;;;11.30;4.73;;;;;;;42.75;33.26;100770.84;6183682;23;20431;-81
2023/04/17 01:05:51;;;;;;;18.10;5.53;;;;;;;42.71;33.69;100771.88;6183843;23;20384;-81
2023/04/17 01:08:18;;;;;;;19.87;7.07;;;;;;;42.77;33.17;100757.66;6185367;23;20376;-81
2023/04/17 01:10:44;;;;;;;22.03;5.90;;;;;;;42.76;33.26;100753.34;6183800;23;20403;-81
2023/04/17 01:13:10;;;;;;;13.53;4.80;;;;;;;42.67;33.66;100747.22;6183497;23;20443;-81
2023/04/17 01:15:36;;;;;;;15.10;5.13;;;;;;;42.69;33.40;100744.16;6183820;23;20383;-81
2023/04/17 01:18:02;;;;;;;11.73;4.67;;;;;;;42.73;33.41;100750.53;6184255;23;20388;-81
2023/04/17 01:20:29;;;;;;;18.13;5.80;;;;;;;42.64;33.73;100756.88;6183723;23;20865;-83
2023/04/17 01:22:57;;;;;;;17.97;5.10;;;;;;;42.63;33.47;100749.81;6183387;23;20438;-83
2023/04/17 01:25:23;;;;;;;16.27;6.03;;;;;;;42.67;33.88;100741.78;6183708;23;20388;-82
2023/04/17 01:27:49;;;;;;;24.83;5.30;;;;;;;42.63;33.55;100752.56;6183543;23;20380;-82
2023/04/17 01:30:15;;;;;;;13.30;5.50;;;;;;;42.68;33.20;100748.03;6183636;23;20408;-81
2023/04/17 01:32:41;;;;;;;19.43;5.70;;;;;;;42.64;33.18;100750.63;6183588;23;20380;-83
2023/04/17 01:35:08;;;;;;;15.10;4.70;;;;;;;42.70;33.15;100759.38;6183496;23;20392;-83
2023/04/17 01:37:34;;;;;;;14.97;5.43;;;;;;;42.73;33.41;100756.78;6185439;23;20365;-83
2023/04/17 01:40:00;;;;;;;15.77;5.37;;;;;;;42.75;33.73;100742.78;6183644;23;20412;-83
2023/04/17 01:42:26;;;;;;;13.10;4.93;;;;;;;42.71;33.54;100750.84;6183635;23;20427;-83
2023/04/17 01:44:52;;;;;;;15.07;6.20;;;;;;;42.68;33.58;100748.81;6183608;23;20412;-83
2023/04/17 01:47:18;;;;;;;23.27;6.33;;;;;;;42.70;33.67;100741.06;6183164;23;20478;-81
2023/04/17 01:49:44;;;;;;;21.03;6.50;;;;;;;42.65;33.67;100733.91;6183408;23;20734;-81
2023/04/17 01:52:10;;;;;;;20.70;6.90;;;;;;;42.64;33.57;100732.31;6183266;23;20173;-81
2023/04/17 01:54:36;;;;;;;20.80;6.57;;;;;;;42.63;33.85;100730.75;6183261;23;20259;-81
2023/04/17 01:57:02;;;;;;;22.10;7.20;;;;;;;42.64;33.76;100718.69;6183643;23;20422;-81
2023/04/17 01:59:28;;;;;;;19.13;5.67;;;;;;;42.62;33.85;100712.78;6183259;23;20409;-81
2023/04/17 02:01:55;;;;;;;11.50;5.10;;;;;;;42.66;33.49;100701.97;6183148;23;20432;-81
2023/04/17 02:04:21;;;;;;;14.63;6.23;;;;;;;42.67;33.92;100706.31;6183438;23;20884;-81
2023/04/17 02:06:47;;;;;;;20.93;8.23;;;;;;;42.55;33.72;100704.34;6182574;23;20408;-81
2023/04/17 02:09:13;;;;;;;16.83;6.33;;;;;;;42.58;34.12;100692.78;6183410;23;20391;-81
2023/04/17 02:11:39;;;;;;;13.60;5.33;;;;;;;42.59;34.08;100690.84;6182726;23;20452;-82
2023/04/17 02:14:05;;;;;;;12.73;4.50;;;;;;;42.60;33.56;100690.53;6185324;23;20349;-82
2023/04/17 02:16:31;;;;;;;18.30;6.20;;;;;;;42.60;33.84;100704.16;6183291;23;20945;-81
2023/04/17 02:18:57;;;;;;;10.90;4.20;;;;;;;42.52;33.86;100707.75;6183082;23;20494;-82
2023/04/17 02:21:23;;;;;;;19.17;5.60;;;;;;;42.50;33.72;100704.59;6183120;23;20408;-82
2023/04/17 02:23:49;;;;;;;17.23;6.10;;;;;;;42.51;33.66;100708.09;6185214;23;20787;-82
2023/04/17 02:26:15;;;;;;;15.80;4.40;;;;;;;42.54;33.76;100712.84;6182951;23;20415;-82
2023/04/17 02:28:44;;;;;;;16.33;5.20;;;;;;;42.61;33.77;100716.66;6185088;23;20431;-82
2023/04/17 02:31:11;;;;;;;16.63;4.70;;;;;;;42.55;33.75;100715.25;6183023;23;20407;-81
2023/04/17 02:33:37;;;;;;;17.17;4.80;;;;;;;42.58;33.26;100709.16;6182970;23;20385;-81
2023/04/17 02:36:05;;;;;;;16.37;6.40;;;;;;;42.57;33.41;100709.47;6183050;23;20388;-81
2023/04/17 02:38:31;;;;;;;10.83;4.27;;;;;;;42.55;33.42;100689.94;6182934;23;20467;-81
2023/04/17 02:40:58;;;;;;;17.93;4.03;;;;;;;42.61;33.07;100674.94;6158469;23;20381;-81
2023/04/17 02:43:24;;;;;;;12.30;4.70;;;;;;;42.56;33.24;100672.44;6157963;23;20427;-83
2023/04/17 02:45:50;;;;;;;19.97;4.50;;;;;;;42.57;33.51;100671.28;6184518;23;20349;-82
2023/04/17 02:48:17;;;;;;;14.13;4.93;;;;;;;42.57;33.65;100663.09;6185197;23;20698;-82
2023/04/17 02:50:43;;;;;;;13.70;4.20;;;;;;;42.50;33.56;100665.63;6183216;23;20379;-82
2023/04/17 02:53:09;;;;;;;20.00;8.10;;;;;;;42.50;33.97;100655.50;6158383;23;20861;-82
2023/04/17 02:55:35;;;;;;;22.37;4.93;;;;;;;42.51;33.38;100650.84;6182898;23;20918;-83
2023/04/17 02:58:01;;;;;;;12.60;3.97;;;;;;;42.48;33.39;100643.31;6183019;23;20852;-83
2023/04/17 03:00:28;;;;;;;12.13;3.80;;;;;;;42.54;33.50;100647.41;6184949;23;20367;-81
2023/04/17 03:02:54;;;;;;;13.50;4.50;;;;;;;42.54;32.59;100656.41;6182824;23;20419;-82
2023/04/17 03:05:22;;;;;;;14.87;5.50;;;;;;;42.51;32.71;100659.00;6184872;23;20360;-82
2023/04/17 03:07:49;;;;;;;15.17;5.07;;;;;;;42.54;32.92;100669.22;6182993;23;20376;-81
2023/04/17 03:10:15;;;;;;;15.93;7.40;;;;;;;42.52;33.58;100675.03;6182968;23;20372;-81
2023/04/17 03:12:41;;;;;;;7.93;3.87;;;;;;;42.47;32.93;100680.72;6184375;23;20859;-83
2023/04/17 03:15:08;;;;;;;13.90;3.93;;;;;;;42.46;32.66;100689.25;6182704;23;20391;-83
2023/04/17 03:17:34;;;;;;;13.37;4.57;;;;;;;42.48;32.85;100692.41;6184089;23;20387;-82
2023/04/17 03:20:01;;;;;;;15.87;4.10;;;;;;;42.54;33.03;100680.13;6184817;23;20542;-81
2023/04/17 03:22:26;;;;;;;12.73;4.53;;;;;;;42.58;33.14;100686.53;6184874;23;20438;-81
2023/04/17 03:24:52;;;;;;;18.67;5.13;;;;;;;42.56;33.33;100683.34;6184682;23;20474;-81
2023/04/17 03:27:23;;;;;;;18.33;5.00;;;;;;;42.43;33.23;100690.72;6185550;23;20449;-82
2023/04/17 03:29:55;;;;;;;14.47;5.03;;;;;;;42.49;32.58;100694.81;6184807;23;20416;-83
2023/04/17 03:32:21;;;;;;;11.50;3.47;;;;;;;42.45;32.53;100701.28;6184793;23;20380;-83
2023/04/17 03:34:47;;;;;;;10.93;4.20;;;;;;;42.46;32.40;100697.41;6185317;23;20844;-81
2023/04/17 03:37:13;;;;;;;12.20;4.10;;;;;;;42.51;32.48;100699.91;6184556;23;20434;-81
2023/04/17 03:39:38;;;;;;;11.43;4.27;;;;;;;42.52;32.42;100698.78;6186729;23;20407;-81
2023/04/17 03:42:05;;;;;;;11.40;3.50;;;;;;;42.39;32.68;100696.06;6184881;23;20455;-81
2023/04/17 03:44:31;;;;;;;15.20;5.00;;;;;;;42.37;32.80;100698.34;6186228;23;20404;-81
2023/04/17 03:46:57;;;;;;;10.20;3.60;;;;;;;42.33;32.84;100702.88;6184712;23;20392;-81
2023/04/17 03:49:23;;;;;;;11.20;4.20;;;;;;;42.40;32.97;100705.03;6186528;23;20700;-81
2023/04/17 03:51:49;;;;;;;16.20;4.30;;;;;;;42.44;32.94;100705.94;6184578;23;20384;-81
2023/04/17 03:54:15;;;;;;;11.13;4.37;;;;;;;42.48;32.89;100711.50;6184416;23;20431;-81
2023/04/17 03:56:41;;;;;;;14.70;4.47;;;;;;;42.53;32.89;100709.34;6184557;23;20613;-81
2023/04/17 03:59:07;;;;;;;15.30;4.10;;;;;;;42.60;32.93;100719.69;6184788;23;20388;-82
2023/04/17 04:01:33;;;;;;;25.07;5.93;;;;;;;42.53;33.01;100711.28;6184552;23;20388;-81
2023/04/17 04:03:59;;;;;;;19.33;3.47;;;;;;;42.49;32.62;100697.53;6184593;23;20459;-81
2023/04/17 04:06:28;;;;;;;12.23;3.30;;;;;;;42.44;32.96;100705.94;6184422;23;20392;-81
2023/04/17 04:08:55;;;;;;;8.80;3.80;;;;;;;42.47;33.25;100707.19;6184284;23;20392;-81
2023/04/17 04:11:22;;;;;;;9.00;3.60;;;;;;;42.44;33.64;100708.69;6184080;23;20418;-83
2023/04/17 04:13:48;;;;;;;19.70;4.90;;;;;;;42.44;33.28;100707.88;6184103;23;20398;-83
2023/04/17 04:16:14;;;;;;;17.37;3.83;;;;;;;42.46;33.18;100706.41;6186572;23;20793;-81
2023/04/17 04:18:40;;;;;;;12.90;4.17;;;;;;;42.50;33.01;100704.59;6184184;23;20395;-81
2023/04/17 04:21:06;;;;;;;11.17;5.10;;;;;;;42.50;32.77;100715.50;6184183;23;20391;-81
2023/04/17 04:23:32;;;;;;;18.27;5.97;;;;;;;42.48;33.29;100711.50;6184134;23;20764;-83
2023/04/17 04:26:00;;;;;;;17.17;6.83;;;;;;;42.59;33.81;100726.28;6184232;23;20380;-83
2023/04/17 04:28:27;;;;;;;27.37;6.30;;;;;;;42.44;33.50;100708.69;6183946;23;20478;-82
2023/04/17 04:30:53;;;;;;;23.40;6.37;;;;;;;42.44;33.67;100714.13;6184161;23;20857;-82
2023/04/17 04:33:19;;;;;;;17.93;7.37;;;;;;;42.23;34.18;100719.69;6184110;23;20697;-82
2023/04/17 04:35:47;;;;;;;14.23;6.07;;;;;;;42.25;34.35;100722.88;6186119;23;20407;-81
2023/04/17 04:38:14;;;;;;;18.63;8.50;;;;;;;42.29;34.10;100722.97;6184080;23;20388;-81
2023/04/17 04:40:42;;;;;;;17.67;6.83;;;;;;;42.22;34.15;100731.72;6184039;23;20384;-82
2023/04/17 04:43:11;;;;;;;20.83;7.87;;;;;;;42.15;34.21;100745.09;6184039;23;20439;-83
2023/04/17 04:45:37;;;;;;;24.90;9.93;;;;;;;41.89;33.71;100756.28;6183781;23;20416;-82
2023/04/17 04:48:03;;;;;;;21.23;7.63;;;;;;;41.77;33.99;100748.84;6184126;23;20389;-83
2023/04/17 04:50:29;;;;;;;26.40;8.93;;;;;;;41.91;33.73;100751.28;6184664;23;20396;-82
2023/04/17 04:52:55;;;;;;;26.87;7.40;;;;;;;41.74;33.70;100757.72;6184089;23;20380;-81
2023/04/17 04:55:21;;;;;;;18.33;8.63;;;;;;;41.75;33.75;100759.31;6184017;23;20475;-83
2023/04/17 04:57:47;;;;;;;17.97;6.93;;;;;;;41.60;33.80;100749.00;6184647;23;20388;-83
2023/04/17 05:00:14;;;;;;;22.07;8.60;;;;;;;41.60;34.08;100752.50;6183816;23;20794;-82
2023/04/17 05:02:40;;;;;;;29.97;9.33;;;;;;;41.50;33.93;100746.69;6185722;23;20496;-81
2023/04/17 05:05:08;;;;;;;24.17;9.00;;;;;;;41.31;34.28;100738.94;6184177;23;20410;-81
2023/04/17 05:07:34;;;;;;;30.53;8.50;;;;;;;41.49;34.05;100734.19;6184019;23;20418;-81
2023/04/17 05:10:00;;;;;;;19.93;9.63;;;;;;;41.53;34.08;100732.41;6183705;23;20468;-81
2023/04/17 05:12:26;;;;;;;36.90;11.17;;;;;;;41.52;34.53;100738.97;6184192;23;20435;-81
2023/04/17 05:14:52;;;;;;;23.43;8.20;;;;;;;41.27;34.39;100741.56;6183616;23;20377;-84
2023/04/17 05:17:17;;;;;;;24.63;7.70;;;;;;;41.04;34.87;100751.97;6183078;23;20385;-81
2023/04/17 05:19:44;;;;;;;18.17;7.60;;;;;;;41.09;34.69;100740.09;6183383;23;20430;-92
2023/04/17 05:22:10;;;;;;;27.20;7.77;;;;;;;41.25;34.03;100741.09;6183699;23;20424;-91
2023/04/17 05:24:36;;;;;;;19.80;8.37;;;;;;;41.06;34.21;100738.81;6183881;23;20411;-87
2023/04/17 05:27:02;;;;;;;21.70;9.00;;;;;;;41.19;33.91;100747.06;6183500;23;20471;-81
2023/04/17 05:29:29;;;;;;;19.10;7.53;;;;;;;41.14;33.79;100739.91;6183643;23;20812;-80
2023/04/17 05:31:55;;;;;;;20.90;9.80;;;;;;;41.12;33.97;100742.13;6183651;23;21082;-81
2023/04/17 05:34:21;;;;;;;23.03;9.37;;;;;;;41.04;34.03;100743.00;6185444;23;20368;-81
2023/04/17 05:36:47;;;;;;;26.10;10.87;;;;;;;40.99;34.20;100752.16;6185025;23;20388;-81
2023/04/17 05:39:13;;;;;;;29.77;9.77;;;;;;;41.03;33.92;100744.94;6183499;23;20376;-80
2023/04/17 05:41:39;;;;;;;28.17;9.53;;;;;;;40.95;33.93;100755.88;6183114;23;20759;-81
2023/04/17 05:44:06;;;;;;;20.07;7.93;;;;;;;41.07;33.87;100743.16;6185529;23;20383;-80
2023/04/17 05:46:32;;;;;;;21.13;7.97;;;;;;;40.70;33.99;100739.34;6185369;23;20380;-81
2023/04/17 05:48:58;;;;;;;27.77;9.90;;;;;;;40.69;34.14;100737.75;6183254;23;20892;-85
2023/04/17 05:51:24;;;;;;;23.03;8.80;;;;;;;40.86;33.82;100744.22;6183346;23;20385;-86
2023/04/17 05:53:49;;;;;;;32.27;11.33;;;;;;;41.07;33.19;100758.69;6183206;23;20381;-85
2023/04/17 05:56:15;;;;;;;24.97;11.40;;;;;;;40.86;33.37;100755.09;6183151;23;20419;-84
2023/04/17 05:58:41;;;;;;;15.50;10.73;;;;;;;40.91;33.30;100746.78;6183307;23;20384;-83
2023/04/17 06:01:09;;;;;;;39.37;8.80;;;;;;;41.02;32.96;100758.88;6183178;23;20392;-85
2023/04/17 06:03:35;;;;;;;33.47;10.90;;;;;;;41.31;32.94;100756.09;6183138;23;20491;-82
2023/04/17 06:06:01;;;;;;;27.83;10.70;;;;;;;41.20;33.30;100765.78;6185024;23;20452;-89
2023/04/17 06:08:27;;;;;;;27.53;10.37;;;;;;;41.41;32.84;100773.97;6182884;23;20861;-86
2023/04/17 06:10:54;;;;;;;25.53;10.57;;;;;;;41.42;32.74;100772.84;6182995;23;20388;-85
2023/04/17 06:13:22;;;;;;;31.47;13.57;;;;;;;41.44;33.10;100762.44;6183636;23;20451;-85
2023/04/17 06:15:49;;;;;;;22.73;9.87;;;;;;;41.39;33.00;100757.19;6183490;23;20395;-85
2023/04/17 06:18:16;;;;;;;22.30;10.00;;;;;;;41.41;33.03;100765.00;6183507;23;20515;-86
2023/04/17 06:20:43;;;;;;;24.93;11.17;;;;;;;41.25;33.23;100768.31;6183443;23;20464;-84
2023/04/17 06:23:09;;;;;;;22.43;12.87;;;;;;;41.26;32.64;100774.56;6182643;23;20463;-84
2023/04/17 06:25:35;;;;;;;23.80;13.00;;;;;;;41.29;33.01;100780.13;6184549;23;20389;-82
2023/04/17 06:28:01;;;;;;;39.30;19.63;;;;;;;41.22;32.67;100785.31;6184730;23;20411;-82
2023/04/17 06:30:27;;;;;;;45.53;19.70;;;;;;;41.19;33.29;100779.72;6183573;23;20388;-83
2023/04/17 06:32:53;;;;;;;47.67;21.10;;;;;;;41.36;32.63;100778.81;6189573;23;20388;-84
2023/04/17 06:35:19;;;;;;;29.70;14.77;;;;;;;41.22;32.35;100785.31;6182218;23;21097;-88
2023/04/17 06:37:46;;;;;;;30.27;11.63;;;;;;;41.18;32.72;100789.00;6180868;23;20394;-88
2023/04/17 06:40:12;;;;;;;27.00;13.53;;;;;;;41.23;32.85;100788.81;6181052;23;20392;-87
2023/04/17 06:42:38;;;;;;;24.90;12.50;;;;;;;41.21;32.95;100794.59;6183418;23;20482;-88
2023/04/17 06:45:04;;;;;;;27.20;13.57;;;;;;;41.21;32.80;100791.88;6184406;23;20364;-88
2023/04/17 06:47:30;;;;;;;29.57;14.13;;;;;;;41.16;33.10;100785.81;6182823;23;20408;-88
2023/04/17 06:49:58;;;;;;;25.67;13.90;;;;;;;41.23;32.69;100791.53;6181298;23;20987;-89
2023/04/17 06:52:25;;;;;;;34.70;16.03;;;;;;;41.19;33.13;100799.59;6185771;23;20824;-87
2023/04/17 06:54:53;;;;;;;27.57;13.97;;;;;;;41.13;33.42;100797.34;6185210;23;20404;-87
2023/04/17 06:57:20;;;;;;;27.23;13.80;;;;;;;41.20;33.20;100809.34;6187115;23;20453;-87
2023/04/17 06:59:47;;;;;;;24.77;12.53;;;;;;;41.15;33.56;100809.53;6185033;23;20395;-86
2023/04/17 07:02:13;;;;;;;19.40;11.50;;;;;;;41.16;33.21;100813.03;6184924;23;20441;-87
2023/04/17 07:04:39;;;;;;;29.53;11.13;;;;;;;41.26;33.24;100808.00;6185066;23;20385;-86
2023/04/17 07:07:05;;;;;;;23.23;14.10;;;;;;;41.38;32.87;100815.50;6184939;23;20466;-87
2023/04/17 07:09:31;;;;;;;34.83;13.53;;;;;;;41.38;33.03;100820.94;6185064;23;20450;-86
2023/04/17 07:11:57;;;;;;;25.97;11.53;;;;;;;41.41;32.68;100808.56;6184561;23;20440;-87
2023/04/17 07:14:23;;;;;;;38.93;11.90;;;;;;;41.23;32.58;100816.03;6185046;23;20395;-87
2023/04/17 07:16:49;;;;;;;37.90;10.90;;;;;;;41.22;32.92;100817.16;6185440;23;20380;-86
2023/04/17 07:19:15;;;;;;;28.93;12.60;;;;;;;40.99;33.27;100820.16;6184857;23;20411;-86
2023/04/17 07:21:41;;;;;;;22.93;11.07;;;;;;;41.42;32.66;100821.06;6184773;23;20718;-86
2023/04/17 07:24:07;;;;;;;29.73;11.30;;;;;;;41.47;32.57;100810.75;6184477;23;20439;-86
2023/04/17 07:26:33;;;;;;;28.47;13.30;;;;;;;41.54;32.65;100812.97;6184670;23;20423;-86
2023/04/17 07:29:00;;;;;;;29.40;15.70;;;;;;;41.49;32.14;100813.94;6184830;23;20412;-85
2023/04/17 07:31:27;;;;;;;36.27;16.67;;;;;;;41.41;32.83;100811.28;6184610;23;20380;-86
2023/04/17 07:33:53;;;;;;;47.43;20.57;;;;;;;41.51;32.58;100808.19;6184759;23;20899;-85
2023/04/17 07:36:19;;;;;;;38.57;18.17;;;;;;;41.62;32.54;100817.56;6186539;23;20423;-86
2023/04/17 07:38:45;;;;;;;34.37;15.20;;;;;;;41.65;32.34;100821.53;6184789;23;20372;-86
2023/04/17 07:41:11;;;;;;;31.73;13.90;;;;;;;41.52;32.41;100831.56;6184590;23;20725;-86
2023/04/17 07:43:37;;;;;;;32.03;15.53;;;;;;;41.60;32.69;100823.31;6184299;23;20800;-86
2023/04/17 07:46:03;;;;;;;28.87;13.53;;;;;;;41.56;32.64;100818.88;6184721;23;20384;-86
2023/04/17 07:48:30;;;;;;;30.40;14.57;;;;;;;41.73;32.80;100829.63;6184100;23;20860;-86
2023/04/17 07:50:59;;;;;;;28.90;14.73;;;;;;;41.75;32.38;100824.69;6184560;23;20388;-86
2023/04/17 07:53:27;;;;;;;24.70;14.40;;;;;;;41.69;32.74;100830.63;6184682;23;20383;-86
2023/04/17 07:55:54;;;;;;;33.50;12.83;;;;;;;41.65;32.94;100833.22;6184404;23;21056;-86
2023/04/17 07:58:22;;;;;;;30.37;12.67;;;;;;;41.52;32.77;100837.81;6184682;23;20391;-86
2023/04/17 08:00:50;;;;;;;22.33;12.17;;;;;;;41.70;32.49;100841.19;6184473;23;20388;-86
2023/04/17 08:03:16;;;;;;;31.13;12.17;;;;;;;41.80;32.62;100842.72;6184670;23;20446;-86
2023/04/17 08:05:42;;;;;;;26.57;14.90;;;;;;;41.89;32.54;100848.13;6184465;23;20376;-86
2023/04/17 08:08:08;;;;;;;28.53;14.67;;;;;;;41.79;32.66;100847.38;6184310;23;20393;-86
2023/04/17 08:10:34;;;;;;;34.23;12.57;;;;;;;41.84;32.54;100849.09;6184254;23;20380;-85
2023/04/17 08:13:01;;;;;;;28.80;13.40;;;;;;;41.88;32.42;100847.31;6184076;23;20751;-85
2023/04/17 08:15:27;;;;;;;23.83;13.47;;;;;;;41.95;32.21;100842.13;6184381;23;20869;-85
2023/04/17 08:17:53;;;;;;;33.30;14.10;;;;;;;42.16;31.87;100852.19;6184277;23;20389;-86
2023/04/17 08:20:19;;;;;;;22.77;14.27;;;;;;;42.04;32.11;100842.03;6184560;23;20441;-86
2023/04/17 08:22:45;;;;;;;40.20;16.63;;;;;;;41.73;32.60;100843.22;6186123;23;20412;-85
2023/04/17 08:25:12;;;;;;;27.23;14.20;;;;;;;41.81;32.53;100834.25;6184358;23;20376;-87
2023/04/17 08:27:40;;;;;;;31.27;14.20;;;;;;;41.92;32.66;100831.88;6186236;23;20404;-86
2023/04/17 08:30:10;;;;;;;33.60;15.80;;;;;;;42.00;32.45;100847.38;6184175;23;20388;-86
2023/04/17 08:32:41;;;;;;;25.97;12.43;;;;;;;41.85;32.81;100845.25;6184167;23;20380;-85
2023/04/17 08:35:10;;;;;;;26.73;12.23;;;;;;;41.94;32.73;100850.63;6184274;23;20931;-84
2023/04/17 08:37:37;;;;;;;33.40;13.47;;;;;;;42.03;32.70;100845.88;6183940;23;20384;-85
2023/04/17 08:40:05;;;;;;;39.40;16.17;;;;;;;42.02;32.41;100852.47;6184249;23;20396;-84
2023/04/17 08:42:37;;;;;;;37.17;19.40;;;;;;;42.08;32.63;100843.75;6185679;23;20485;-85
2023/04/17 08:45:25;;;;;;;45.60;16.63;;;;;;;41.96;32.65;100851.88;6184151;23;20420;-85
2023/04/17 08:47:51;;;;;;;37.93;14.93;;;;;;;42.10;32.58;100851.59;6185903;23;20356;-85
2023/04/17 08:50:19;;;;;;;21.70;11.60;;;;;;;42.20;32.52;100848.47;6184312;23;20496;-84
2023/04/17 08:52:50;;;;;;;25.87;12.33;;;;;;;42.17;32.16;100842.88;6183843;23;20388;-85
2023/04/17 08:55:20;;;;;;;27.43;10.77;;;;;;;42.15;32.49;100843.19;6185987;23;20404;-86
2023/04/17 08:58:08;;;;;;;28.07;12.07;;;;;;;42.25;32.38;100842.81;6185706;23;20435;-85
2023/04/17 09:00:35;;;;;;;31.60;13.97;;;;;;;42.25;32.51;100836.56;6183899;23;20735;-86
2023/04/17 09:03:03;;;;;;;30.43;12.20;;;;;;;42.31;32.47;100829.78;6183857;23;20428;-86
2023/04/17 09:05:32;;;;;;;23.37;12.27;;;;;;;42.37;32.50;100825.69;6183860;23;20388;-85
2023/04/17 09:08:15;;;;;;;37.43;12.30;;;;;;;42.26;32.74;100819.88;6183856;23;20879;-83
2023/04/17 09:10:46;;;;;;;29.13;9.50;;;;;;;42.28;33.00;100812.13;6183902;23;20384;-83
2023/04/17 09:13:15;;;;;;;28.83;11.63;;;;;;;42.26;32.83;100819.88;6183428;23;20432;-83
2023/04/17 09:15:42;;;;;;;42.53;12.40;;;;;;;42.32;33.02;100820.44;6183557;23;20512;-83
2023/04/17 09:18:25;;;;;;;32.67;10.67;;;;;;;42.33;33.33;100819.31;6185226;23;20387;-85
2023/04/17 09:20:51;;;;;;;26.67;10.13;;;;;;;42.36;33.33;100811.28;6183678;23;20376;-86
2023/04/17 09:23:17;;;;;;;28.60;9.47;;;;;;;42.42;33.03;100809.13;6185487;23;20417;-85
2023/04/17 09:25:43;;;;;;;32.03;9.00;;;;;;;42.50;32.85;100818.31;6183694;23;20384;-87
2023/04/17 09:28:12;;;;;;;24.60;9.23;;;;;;;42.55;33.14;100807.19;6183541;23;20423;-87
2023/04/17 09:30:39;;;;;;;25.80;8.70;;;;;;;42.51;33.17;100812.53;6183622;23;20419;-85
2023/04/17 09:33:07;;;;;;;27.53;10.13;;;;;;;42.36;33.43;100811.28;6183689;23;20455;-86
2023/04/17 09:35:34;;;;;;;36.00;9.80;;;;;;;42.32;33.38;100804.88;6183584;23;20391;-84
2023/04/17 09:38:00;;;;;;;27.37;10.07;;;;;;;42.39;33.15;100801.59;6185506;23;20353;-83
2023/04/17 09:40:35;;;;;;;22.90;10.70;;;;;;;42.44;33.05;100806.84;6183785;23;20376;-86
2023/04/17 09:43:05;;;;;;;32.67;10.53;;;;;;;42.56;32.97;100803.34;6183446;23;20434;-86
2023/04/17 09:45:38;;;;;;;20.40;7.37;;;;;;;42.62;32.83;100810.19;6183584;23;20384;-85
2023/04/17 09:48:14;;;;;;;21.30;10.53;;;;;;;42.64;33.06;100799.72;6183675;23;20439;-85
2023/04/17 09:50:40;;;;;;;32.70;9.23;;;;;;;42.51;33.22;100803.56;6183188;23;20387;-80
2023/04/17 09:53:07;;;;;;;21.20;8.50;;;;;;;42.61;33.08;100803.16;6185667;23;20364;-82
2023/04/17 09:55:35;;;;;;;40.07;10.57;;;;;;;42.71;33.24;100799.94;6183468;23;20405;-81
2023/04/17 09:58:04;;;;;;;20.60;7.30;;;;;;;42.63;33.19;100803.59;6183438;23;20416;-81
2023/04/17 10:00:31;;;;;;;20.70;7.17;;;;;;;42.73;33.13;100802.34;6183434;23;20412;-82
2023/04/17 10:02:58;;;;;;;22.93;7.80;;;;;;;42.82;33.27;100795.63;6183257;23;20916;-79
2023/04/17 10:05:26;;;;;;;31.50;6.70;;;;;;;42.83;33.07;100802.66;6185266;23;20364;-79
2023/04/17 10:07:52;;;;;;;29.00;7.70;;;;;;;42.83;33.50;100797.22;6183636;23;20400;-81
2023/04/17 10:10:32;;;;;;;17.10;7.50;;;;;;;42.81;33.41;100802.22;6183170;23;20419;-81
2023/04/17 10:13:01;;;;;;;26.03;8.00;;;;;;;42.88;33.21;100799.72;6183153;23;20431;-81
2023/04/17 10:15:28;;;;;;;20.07;8.10;;;;;;;42.89;33.39;100800.50;6183141;23;20388;-79
2023/04/17 10:17:57;;;;;;;18.80;6.63;;;;;;;42.93;33.42;100799.47;6158743;23;20531;-79
2023/04/17 10:20:23;;;;;;;16.57;7.13;;;;;;;42.83;33.27;100808.13;6159096;23;20387;-79
2023/04/17 10:22:55;;;;;;;21.27;8.00;;;;;;;42.97;33.61;100798.78;6183094;23;20436;-78
2023/04/17 10:25:24;;;;;;;16.50;6.43;;;;;;;42.95;33.81;100801.06;6183190;23;20152;-79
2023/04/17 10:27:52;;;;;;;23.07;7.40;;;;;;;42.92;33.74;100791.66;6182755;23;20387;-79
2023/04/17 10:30:20;;;;;;;22.93;7.40;;;;;;;43.03;33.37;100795.53;6183272;23;20455;-79
2023/04/17 10:33:26;;;;;;;26.23;6.77;;;;;;;42.85;33.86;100797.69;6183114;23;20384;-79
2023/04/17 10:35:53;;;;;;;23.00;7.70;;;;;;;43.01;33.13;100797.00;6182841;23;20392;-79
2023/04/17 10:38:35;;;;;;;12.80;5.87;;;;;;;42.82;33.93;100789.38;6183269;23;20391;-78
2023/04/17 10:41:03;;;;;;;17.00;7.30;;;;;;;42.82;33.83;100784.72;6184954;23;20742;-81
2023/04/17 10:43:29;;;;;;;26.03;9.00;;;;;;;43.13;33.88;100783.34;6183056;23;20498;-79
2023/04/17 10:46:11;;;;;;;18.63;7.33;;;;;;;43.19;33.80;100788.22;6183016;23;20868;-79
2023/04/17 10:48:55;;;;;;;20.73;6.80;;;;;;;43.21;33.53;100782.41;6182974;23;20412;-78
2023/04/17 10:51:21;;;;;;;16.50;6.37;;;;;;;43.29;33.40;100786.16;6183226;23;20443;-78
2023/04/17 10:53:57;;;;;;;22.97;6.80;;;;;;;43.23;33.30;100782.06;6183169;23;20495;-79
2023/04/17 10:56:35;;;;;;;14.57;5.47;;;;;;;43.28;33.01;100779.91;6185159;23;20701;-80
2023/04/17 10:59:03;;;;;;;16.27;6.83;;;;;;;43.22;32.75;100778.56;6182722;23;20422;-83
2023/04/17 11:01:50;;;;;;;15.37;7.07;;;;;;;43.32;32.91;100785.44;6183268;23;20390;-83
2023/04/17 11:04:24;;;;;;;15.87;5.17;;;;;;;43.29;32.68;100777.97;6174280;23;20389;-82
2023/04/17 11:06:54;;;;;;;13.53;5.10;;;;;;;43.23;33.05;100773.88;6182956;23;20412;-84
2023/04/17 11:09:21;;;;;;;15.20;6.30;;;;;;;43.18;33.60;100780.38;6182912;23;20400;-83
2023/04/17 11:11:48;;;;;;;10.70;4.07;;;;;;;43.03;33.77;100768.25;6182428;23;20447;-83
2023/04/17 11:14:22;;;;;;;11.73;6.20;;;;;;;43.21;33.47;100767.94;6182831;23;20885;-83